createdAt,value
2022-11-08T00:01:43.203Z,28.35
2022-11-08T00:04:11.514Z,33.17
2022-11-08T00:06:57.314Z,27.95
2022-11-08T00:09:42.681Z,30.80
2022-11-08T00:12:28.189Z,25.33
2022-11-08T00:14:55.054Z,30.95
2022-11-08T00:17:22.334Z,26.60
2022-11-08T00:19:48.996Z,34.25
2022-11-08T00:22:15.611Z,31.00
2022-11-08T00:24:42.202Z,37.95
2022-11-08T00:27:19.446Z,35.33
2022-11-08T00:29:46.108Z,46.70
2022-11-08T00:32:17.234Z,38.92
2022-11-08T00:34:44.149Z,33.03
2022-11-08T00:37:10.799Z,28.35
2022-11-08T00:39:37.545Z,37.53
2022-11-08T00:42:04.263Z,35.55
2022-11-08T00:44:30.901Z,30.75
2022-11-08T00:46:57.536Z,32.88
2022-11-08T00:49:24.208Z,31.83
2022-11-08T00:51:50.890Z,33.15
2022-11-08T00:54:19.308Z,35.15
2022-11-08T00:56:46.221Z,28.17
2022-11-08T00:59:13.949Z,28.50
2022-11-08T01:01:40.917Z,28.38
2022-11-08T01:04:08.198Z,27.88
2022-11-08T01:06:34.785Z,28.52
2022-11-08T01:09:01.776Z,25.83
2022-11-08T01:11:28.550Z,26.20
2022-11-08T01:13:59.094Z,30.50
2022-11-08T01:16:27.145Z,31.58
2022-11-08T01:18:54.525Z,34.92
2022-11-08T01:21:21.342Z,28.73
2022-11-08T01:23:48.055Z,29.95
2022-11-08T01:26:16.420Z,31.65
2022-11-08T01:28:43.237Z,28.35
2022-11-08T01:31:14.769Z,27.10
2022-11-08T01:33:42.948Z,26.00
2022-11-08T01:36:13.493Z,29.83
2022-11-08T01:38:40.325Z,29.48
2022-11-08T01:41:07.133Z,32.80
2022-11-08T01:43:40.713Z,28.75
2022-11-08T01:46:23.544Z,28.55
2022-11-08T01:49:08.440Z,35.70
2022-11-08T01:51:41.020Z,32.42
2022-11-08T01:54:09.353Z,36.22
2022-11-08T01:56:36.365Z,34.08
2022-11-08T01:59:03.069Z,33.00
2022-11-08T02:01:30.005Z,27.58
2022-11-08T02:03:56.951Z,28.77
2022-11-08T02:06:23.561Z,27.88
2022-11-08T02:08:50.261Z,25.15
2022-11-08T02:11:16.924Z,28.63
2022-11-08T02:13:43.541Z,33.08
2022-11-08T02:16:14.455Z,28.98
2022-11-08T02:18:44.320Z,30.27
2022-11-08T02:21:31.829Z,26.45
2022-11-08T02:24:02.769Z,26.63
2022-11-08T02:26:31.395Z,25.58
2022-11-08T02:28:58.127Z,26.52
2022-11-08T02:31:24.829Z,29.88
2022-11-08T02:33:51.437Z,28.92
2022-11-08T02:36:22.787Z,28.95
2022-11-08T02:38:54.162Z,32.72
2022-11-08T02:41:20.958Z,28.67
2022-11-08T02:43:47.620Z,31.77
2022-11-08T02:46:14.201Z,28.73
2022-11-08T02:48:40.895Z,26.73
2022-11-08T02:51:07.534Z,24.00
2022-11-08T02:53:34.154Z,29.75
2022-11-08T02:56:00.803Z,26.30
2022-11-08T02:58:28.032Z,26.75
2022-11-08T03:00:54.852Z,32.67
2022-11-08T03:03:21.521Z,33.83
2022-11-08T03:05:48.227Z,27.17
2022-11-08T03:08:15.303Z,33.65
2022-11-08T03:10:42.271Z,26.45
2022-11-08T03:13:09.003Z,32.03
2022-11-08T03:15:35.700Z,25.33
2022-11-08T03:18:02.638Z,30.27
2022-11-08T03:20:32.871Z,36.80
2022-11-08T03:23:01.386Z,29.55
2022-11-08T03:25:28.061Z,30.38
2022-11-08T03:27:54.751Z,26.50
2022-11-08T03:30:21.599Z,30.45
2022-11-08T03:32:49.813Z,27.55
2022-11-08T03:35:16.614Z,27.23
2022-11-08T03:37:52.573Z,30.33
2022-11-08T03:40:19.307Z,30.10
2022-11-08T03:42:46.116Z,28.98
2022-11-08T03:45:12.935Z,29.83
2022-11-08T03:47:42.992Z,33.17
2022-11-08T03:50:10.068Z,33.90
2022-11-08T03:52:45.630Z,35.08
2022-11-08T03:55:12.317Z,31.13
2022-11-08T03:57:42.107Z,27.88
2022-11-08T04:00:10.846Z,26.90
2022-11-08T04:02:37.583Z,26.45
2022-11-08T04:05:04.874Z,30.67
2022-11-08T04:07:31.590Z,30.15
2022-11-08T04:09:58.242Z,28.52
2022-11-08T04:12:43.286Z,31.27
2022-11-08T04:15:15.452Z,30.98
2022-11-08T04:18:08.161Z,26.10
2022-11-08T04:20:59.538Z,30.05
2022-11-08T04:23:26.263Z,29.40
2022-11-08T04:25:57.157Z,31.00
2022-11-08T04:28:27.770Z,27.42
2022-11-08T04:30:55.407Z,26.95
2022-11-08T04:33:22.058Z,29.10
2022-11-08T04:35:48.895Z,28.08
2022-11-08T04:38:15.903Z,31.42
2022-11-08T04:40:42.774Z,28.88
2022-11-08T04:43:09.419Z,32.25
2022-11-08T04:45:36.031Z,24.58
2022-11-08T04:48:02.697Z,27.30
2022-11-08T04:50:29.285Z,47.17
2022-11-08T04:52:56.073Z,40.13
2022-11-08T04:55:22.966Z,37.78
2022-11-08T04:57:49.903Z,34.47
2022-11-08T05:00:16.985Z,37.78
2022-11-08T05:02:43.801Z,32.03
2022-11-08T05:05:10.587Z,31.27
2022-11-08T05:07:37.240Z,32.30
2022-11-08T05:10:04.146Z,33.17
2022-11-08T05:12:30.863Z,29.08
2022-11-08T05:14:57.531Z,36.80
2022-11-08T05:17:24.164Z,25.92
2022-11-08T05:20:09.465Z,39.83
2022-11-08T05:22:54.833Z,32.58
2022-11-08T05:25:21.566Z,44.05
2022-11-08T05:27:48.196Z,41.85
2022-11-08T05:30:14.795Z,37.75
2022-11-08T05:32:41.582Z,35.38
2022-11-08T05:35:08.254Z,37.60
2022-11-08T05:37:34.879Z,35.25
2022-11-08T05:40:01.546Z,36.17
2022-11-08T05:42:28.678Z,37.20
2022-11-08T05:44:55.335Z,31.77
2022-11-08T05:47:22.023Z,33.58
2022-11-08T05:49:48.687Z,33.88
2022-11-08T05:52:15.252Z,29.42
2022-11-08T05:54:41.931Z,29.67
2022-11-08T05:57:08.587Z,30.73
2022-11-08T05:59:35.200Z,26.75
2022-11-08T06:02:01.908Z,26.48
2022-11-08T06:04:28.596Z,32.20
2022-11-08T06:06:55.203Z,32.88
2022-11-08T06:09:21.945Z,32.13
2022-11-08T06:11:48.597Z,29.98
2022-11-08T06:14:15.194Z,29.33
2022-11-08T06:16:41.894Z,28.63
2022-11-08T06:19:08.507Z,30.15
2022-11-08T06:21:35.167Z,29.48
2022-11-08T06:24:01.759Z,33.30
2022-11-08T06:26:28.555Z,40.50
2022-11-08T06:28:55.155Z,46.28
2022-11-08T06:31:21.831Z,34.63
2022-11-08T06:33:48.559Z,45.08
2022-11-08T06:36:15.320Z,52.45
2022-11-08T06:38:41.951Z,46.70
2022-11-08T06:41:09.453Z,35.13
2022-11-08T06:43:36.161Z,38.75
2022-11-08T06:46:02.892Z,38.28
2022-11-08T06:48:35.097Z,34.67
2022-11-08T06:51:02.740Z,43.67
2022-11-08T06:53:29.902Z,52.22
2022-11-08T06:55:56.505Z,42.38
2022-11-08T06:58:23.082Z,36.80
2022-11-08T07:00:49.745Z,33.30
2022-11-08T07:03:16.676Z,36.42
2022-11-08T07:05:43.563Z,38.30
2022-11-08T07:08:10.203Z,31.85
2022-11-08T07:10:37.614Z,30.98
2022-11-08T07:13:10.423Z,38.15
2022-11-08T07:15:37.437Z,33.97
2022-11-08T07:18:05.815Z,33.60
2022-11-08T07:20:32.653Z,33.63
2022-11-08T07:22:59.594Z,35.58
2022-11-08T07:25:26.540Z,30.48
2022-11-08T07:27:57.278Z,29.35
2022-11-08T07:30:24.016Z,27.60
2022-11-08T07:32:51.137Z,34.90
2022-11-08T07:35:18.789Z,31.50
2022-11-08T07:37:45.574Z,31.35
2022-11-08T07:40:12.765Z,38.60
2022-11-08T07:43:05.163Z,32.17
2022-11-08T07:45:26.699Z,38.80
2022-11-08T07:48:11.473Z,31.33
2022-11-08T07:50:39.043Z,30.75
2022-11-08T07:53:05.893Z,29.67
2022-11-08T07:55:32.523Z,38.53
2022-11-08T07:58:02.507Z,27.42
2022-11-08T08:00:30.102Z,27.23
2022-11-08T08:03:00.197Z,28.52
2022-11-08T08:05:28.005Z,31.48
2022-11-08T08:07:58.624Z,29.45
2022-11-08T08:10:25.599Z,25.40
2022-11-08T08:12:52.207Z,23.52
2022-11-08T08:15:18.853Z,27.02
2022-11-08T08:17:45.486Z,32.97
2022-11-08T08:20:12.324Z,31.85
2022-11-08T08:22:45.990Z,25.27
2022-11-08T08:25:12.896Z,30.23
2022-11-08T08:27:39.529Z,33.97
2022-11-08T08:30:07.013Z,29.25
2022-11-08T08:32:34.384Z,32.63
2022-11-08T08:35:01.123Z,38.28
2022-11-08T08:37:27.815Z,40.05
2022-11-08T08:39:54.447Z,32.42
2022-11-08T08:42:21.113Z,33.38
2022-11-08T08:44:47.823Z,31.48
2022-11-08T08:47:14.445Z,33.33
2022-11-08T08:49:41.276Z,34.45
2022-11-08T08:52:07.952Z,30.70
2022-11-08T08:54:34.530Z,34.75
2022-11-08T08:57:01.291Z,38.42
2022-11-08T09:02:17.582Z,34.83
2022-11-08T09:04:44.235Z,31.45
2022-11-08T09:07:10.934Z,33.60
2022-11-08T09:09:37.703Z,35.40
2022-11-08T09:12:04.525Z,38.60
2022-11-08T09:14:31.383Z,35.75
2022-11-08T09:16:58.098Z,36.70
2022-11-08T09:19:24.827Z,31.25
2022-11-08T09:21:51.624Z,31.38
2022-11-08T09:24:18.304Z,28.60
2022-11-08T09:26:44.991Z,32.28
2022-11-08T09:29:11.741Z,33.55
2022-11-08T09:31:38.403Z,31.77
2022-11-08T09:34:04.980Z,36.65
2022-11-08T09:36:31.658Z,90.10
2022-11-08T09:38:58.429Z,35.45
2022-11-08T09:41:25.016Z,36.47
2022-11-08T09:43:58.680Z,1688.05
2022-11-08T09:46:50.646Z,1592.25
2022-11-08T09:49:20.458Z,850.28
2022-11-08T09:51:47.801Z,443.20
2022-11-08T09:54:19.970Z,981.92
2022-11-08T09:56:46.618Z,1147.03
2022-11-08T09:59:31.697Z,419.55
2022-11-08T10:01:58.409Z,771.70
2022-11-08T10:04:26.642Z,195.70
2022-11-08T10:07:05.087Z,162.25
2022-11-08T10:09:54.689Z,523.53
2022-11-08T10:12:22.954Z,614.35
2022-11-08T10:15:10.906Z,291.15
2022-11-08T10:17:49.287Z,485.00
2022-11-08T10:20:35.450Z,1970.68
2022-11-08T10:23:26.471Z,828.78
2022-11-08T10:25:59.738Z,595.72
2022-11-08T10:28:47.548Z,187.93
2022-11-08T10:31:14.245Z,527.03
2022-11-08T10:33:44.522Z,203.63
2022-11-08T10:36:20.485Z,831.55
2022-11-08T10:39:04.124Z,511.70
2022-11-08T10:41:48.929Z,169.48
2022-11-08T10:44:21.119Z,103.18
2022-11-08T10:47:12.168Z,184.25
2022-11-08T10:49:40.348Z,89.65
2022-11-08T10:52:44.267Z,46.67
2022-11-08T10:55:31.111Z,48.92
2022-11-08T10:57:57.819Z,85.97
2022-11-08T11:00:29.839Z,71.65
2022-11-08T11:03:22.444Z,99.70
2022-11-08T11:05:59.890Z,72.95
2022-11-08T11:08:26.519Z,57.05
2022-11-08T11:10:53.164Z,50.95
2022-11-08T11:13:21.548Z,40.50
2022-11-08T11:15:52.531Z,139.07
2022-11-08T11:18:21.906Z,55.35
2022-11-08T11:21:19.397Z,57.17
2022-11-08T11:23:46.722Z,36.85
2022-11-08T11:26:34.317Z,102.07
2022-11-08T11:29:06.987Z,59.97
2022-11-08T11:31:35.423Z,32.67
2022-11-08T11:34:17.360Z,47.47
2022-11-08T11:36:55.515Z,28.33
2022-11-08T11:39:28.609Z,90.45
2022-11-08T11:42:24.087Z,160.00
2022-11-08T11:45:13.088Z,42.00
2022-11-08T11:47:46.944Z,29.42
2022-11-08T11:50:34.614Z,27.48
2022-11-08T11:53:05.973Z,27.20
2022-11-08T11:55:57.247Z,24.42
2022-11-08T11:58:33.310Z,29.85
2022-11-08T12:01:14.483Z,22.30
2022-11-08T12:03:53.574Z,28.67
2022-11-08T12:06:31.393Z,30.50
2022-11-08T12:09:00.950Z,26.75
2022-11-08T12:11:36.270Z,24.17
2022-11-08T12:14:21.620Z,34.42
2022-11-08T12:16:57.385Z,37.08
2022-11-08T12:19:32.842Z,51.28
2022-11-08T12:22:19.501Z,25.42
2022-11-08T12:25:07.711Z,26.58
2022-11-08T12:27:53.659Z,70.75
2022-11-08T12:30:31.968Z,53.17
2022-11-08T12:33:20.995Z,28.00
2022-11-08T12:35:59.946Z,29.80
2022-11-08T12:39:01.657Z,30.63
2022-11-08T12:41:33.081Z,31.70
2022-11-08T12:44:16.994Z,70.00
2022-11-08T12:46:58.636Z,39.40
2022-11-08T12:49:33.824Z,35.15
2022-11-08T12:52:29.598Z,34.40
2022-11-08T12:55:00.784Z,41.85
2022-11-08T12:57:31.286Z,30.85
2022-11-08T13:00:08.687Z,27.00
2022-11-08T13:02:38.607Z,34.30
2022-11-08T13:05:20.484Z,35.75
2022-11-08T13:07:57.344Z,44.35
2022-11-08T13:10:39.014Z,30.23
2022-11-08T13:13:26.854Z,32.33
2022-11-08T13:16:22.552Z,26.73
2022-11-08T13:18:59.618Z,26.02
2022-11-08T13:21:26.212Z,26.35
2022-11-08T13:23:58.923Z,31.27
2022-11-08T13:26:25.737Z,33.20
2022-11-08T13:28:52.887Z,28.38
2022-11-08T13:31:40.519Z,28.20
2022-11-08T13:34:25.089Z,36.47
2022-11-08T13:37:04.054Z,25.27
2022-11-08T13:39:55.263Z,23.85
2022-11-08T13:42:21.799Z,30.02
2022-11-08T13:44:54.198Z,22.13
2022-11-08T13:47:33.048Z,20.33
2022-11-08T13:50:30.502Z,19.63
2022-11-08T13:53:23.227Z,22.10
2022-11-08T13:55:57.981Z,21.38
2022-11-08T13:58:43.873Z,20.23
2022-11-08T14:01:38.410Z,22.98
2022-11-08T14:04:22.713Z,21.95
2022-11-08T14:07:08.175Z,21.50
2022-11-08T14:09:53.566Z,27.92
2022-11-08T14:12:31.063Z,23.88
2022-11-08T14:15:10.391Z,26.80
2022-11-08T14:17:44.786Z,21.20
2022-11-08T14:22:54.721Z,25.15
2022-11-08T14:25:30.900Z,28.33
2022-11-08T14:27:57.791Z,21.08
2022-11-08T14:30:24.529Z,22.40
2022-11-08T14:33:23.375Z,17.73
2022-11-08T14:36:03.363Z,25.90
2022-11-08T14:38:31.379Z,24.05
2022-11-08T14:40:59.965Z,21.77
2022-11-08T14:43:26.583Z,81.15
2022-11-08T14:45:53.692Z,51.50
2022-11-08T14:48:26.919Z,32.53
2022-11-08T14:51:05.400Z,28.75
2022-11-08T14:53:33.465Z,31.45
2022-11-08T14:56:16.320Z,24.13
2022-11-08T14:58:43.349Z,25.70
2022-11-08T15:01:10.301Z,30.17
2022-11-08T15:03:37.073Z,26.00
2022-11-08T15:06:13.642Z,24.85
2022-11-08T15:08:51.969Z,27.90
2022-11-08T15:11:31.986Z,24.73
2022-11-08T15:13:59.778Z,25.25
2022-11-08T15:16:26.419Z,23.15
2022-11-08T15:18:53.245Z,27.75
2022-11-08T15:21:27.682Z,28.65
2022-11-08T15:24:09.006Z,25.67
2022-11-08T15:26:35.682Z,25.98
2022-11-08T15:29:19.800Z,25.08
2022-11-08T15:31:57.053Z,22.25
2022-11-08T15:34:37.699Z,21.73
2022-11-08T15:37:36.615Z,19.55
2022-11-08T15:40:05.745Z,21.95
2022-11-08T15:42:33.451Z,23.67
2022-11-08T15:45:05.063Z,23.58
2022-11-08T15:47:43.729Z,24.23
2022-11-08T15:50:16.431Z,25.13
2022-11-08T15:52:43.655Z,26.75
2022-11-08T15:55:17.347Z,30.95
2022-11-08T15:57:44.885Z,46.40
2022-11-08T16:00:16.649Z,27.30
2022-11-08T16:02:43.999Z,33.03
2022-11-08T16:05:22.732Z,34.40
2022-11-08T16:07:49.591Z,35.75
2022-11-08T16:10:18.129Z,40.75
2022-11-08T16:12:46.047Z,68.07
2022-11-08T16:15:14.509Z,60.92
2022-11-08T16:17:41.333Z,73.05
2022-11-08T16:20:28.373Z,64.22
2022-11-08T16:22:58.700Z,54.35
2022-11-08T16:25:26.343Z,67.68
2022-11-08T16:28:03.614Z,67.18
2022-11-08T16:30:32.689Z,47.67
2022-11-08T16:32:59.742Z,52.25
2022-11-08T16:35:26.785Z,57.60
2022-11-08T16:37:53.714Z,59.72
2022-11-08T16:40:22.371Z,60.30
2022-11-08T16:42:50.002Z,59.13
2022-11-08T16:45:16.959Z,53.15
2022-11-08T16:47:46.022Z,54.72
2022-11-08T16:50:21.088Z,74.28
2022-11-08T16:52:47.746Z,51.05
2022-11-08T16:55:17.774Z,74.90
2022-11-08T16:57:44.915Z,83.82
2022-11-08T17:00:13.505Z,63.00
2022-11-08T17:02:48.148Z,66.05
2022-11-08T17:05:16.628Z,75.32
2022-11-08T17:07:43.318Z,71.22
2022-11-08T17:10:13.923Z,84.38
2022-11-08T17:12:42.234Z,69.15
2022-11-08T17:15:19.426Z,55.70
2022-11-08T17:17:46.350Z,56.72
2022-11-08T17:20:13.927Z,52.38
2022-11-08T17:22:41.514Z,55.55
2022-11-08T17:25:09.249Z,58.80
2022-11-08T17:27:35.904Z,63.22
2022-11-08T17:30:02.828Z,57.65
2022-11-08T17:32:29.397Z,58.15
2022-11-08T17:34:56.058Z,50.60
2022-11-08T17:37:23.439Z,46.67
2022-11-08T17:39:50.208Z,36.38
2022-11-08T17:42:17.784Z,39.00
2022-11-08T17:44:44.464Z,40.33
2022-11-08T17:47:11.062Z,50.15
2022-11-08T17:49:42.720Z,52.78
2022-11-08T17:52:10.820Z,44.63
2022-11-08T17:54:37.522Z,40.80
2022-11-08T17:57:04.201Z,41.72
2022-11-08T17:59:30.775Z,45.60
2022-11-08T18:01:57.494Z,45.85
2022-11-08T18:04:24.125Z,44.00
2022-11-08T18:06:50.876Z,39.05
2022-11-08T18:09:17.727Z,42.10
2022-11-08T18:11:47.769Z,45.05
2022-11-08T18:14:15.547Z,42.17
2022-11-08T18:16:42.760Z,54.55
2022-11-08T18:19:09.759Z,59.38
2022-11-08T18:21:36.407Z,51.72
2022-11-08T18:24:03.986Z,67.22
2022-11-08T18:26:30.574Z,56.55
2022-11-08T18:28:57.214Z,66.32
2022-11-08T18:31:23.826Z,56.85
2022-11-08T18:33:50.543Z,64.13
2022-11-08T18:36:18.930Z,59.50
2022-11-08T18:38:46.106Z,50.65
2022-11-08T18:41:25.123Z,57.95
2022-11-08T18:43:52.314Z,50.90
2022-11-08T18:46:20.811Z,47.15
2022-11-08T18:48:47.810Z,47.42
2022-11-08T18:51:15.446Z,48.83
2022-11-08T18:53:42.220Z,57.58
2022-11-08T18:56:08.990Z,58.78
2022-11-08T18:58:35.856Z,70.65
2022-11-08T19:01:02.651Z,66.13
2022-11-08T19:03:29.279Z,57.63
2022-11-08T19:05:55.969Z,49.55
2022-11-08T19:08:27.140Z,46.05
2022-11-08T19:10:55.620Z,40.67
2022-11-08T19:13:23.297Z,50.95
2022-11-08T19:16:04.340Z,42.95
2022-11-08T19:18:31.376Z,45.67
2022-11-08T19:21:08.156Z,46.42
2022-11-08T19:23:35.152Z,43.88
2022-11-08T19:26:03.865Z,57.10
2022-11-08T19:28:34.938Z,54.22
2022-11-08T19:31:01.754Z,52.10
2022-11-08T19:33:29.337Z,50.03
2022-11-08T19:35:59.702Z,43.92
2022-11-08T19:38:26.250Z,48.33
2022-11-08T19:40:52.887Z,44.17
2022-11-08T19:43:20.045Z,40.17
2022-11-08T19:45:52.505Z,45.65
2022-11-08T19:48:19.372Z,58.70
2022-11-08T19:50:46.829Z,58.40
2022-11-08T19:53:13.541Z,54.28
2022-11-08T19:55:40.266Z,58.97
2022-11-08T19:58:06.861Z,55.30
2022-11-08T20:00:33.581Z,48.60
2022-11-08T20:03:00.275Z,44.92
2022-11-08T20:05:28.266Z,47.65
2022-11-08T20:07:54.862Z,36.60
2022-11-08T20:10:21.434Z,35.55
2022-11-08T20:12:48.129Z,34.03
2022-11-08T20:15:14.772Z,32.33
2022-11-08T20:17:42.632Z,34.50
2022-11-08T20:20:09.609Z,38.75
2022-11-08T20:22:36.213Z,36.28
2022-11-08T20:25:02.890Z,35.58
2022-11-08T20:27:29.495Z,36.85
2022-11-08T20:29:56.158Z,34.60
2022-11-08T20:32:22.730Z,38.58
2022-11-08T20:34:50.714Z,35.78
2022-11-08T20:37:17.761Z,34.80
2022-11-08T20:39:44.569Z,34.22
2022-11-08T20:42:11.156Z,60.00
2022-11-08T20:44:37.842Z,51.33
2022-11-08T20:47:06.722Z,41.97
2022-11-08T20:49:33.671Z,71.68
2022-11-08T20:52:00.326Z,50.90
2022-11-08T20:54:26.893Z,54.65
2022-11-08T20:56:53.549Z,50.75
2022-11-08T20:59:20.182Z,46.22
2022-11-08T21:01:46.923Z,43.60
2022-11-08T21:04:13.571Z,41.05
2022-11-08T21:06:40.282Z,59.97
2022-11-08T21:09:32.549Z,53.83
2022-11-08T21:11:54.043Z,50.60
2022-11-08T21:14:21.148Z,48.05
2022-11-08T21:17:19.718Z,43.00
2022-11-08T21:19:34.445Z,44.33
2022-11-08T21:22:16.428Z,37.58
2022-11-08T21:24:43.577Z,34.08
2022-11-08T21:27:10.454Z,33.65
2022-11-08T21:29:37.141Z,33.03
2022-11-08T21:32:04.138Z,32.33
2022-11-08T21:34:32.639Z,28.15
2022-11-08T21:36:59.494Z,31.52
2022-11-08T21:39:26.233Z,38.88
2022-11-08T21:41:52.932Z,29.73
2022-11-08T21:44:20.419Z,27.77
2022-11-08T21:46:47.055Z,28.38
2022-11-08T21:49:13.856Z,30.80
2022-11-08T21:51:40.498Z,25.02
2022-11-08T21:54:07.109Z,25.23
2022-11-08T21:56:34.279Z,26.83
2022-11-08T21:59:01.227Z,27.17
2022-11-08T22:01:30.591Z,33.55
2022-11-08T22:03:58.805Z,30.27
2022-11-08T22:06:25.618Z,26.63
2022-11-08T22:08:52.289Z,26.33
2022-11-08T22:11:18.985Z,23.10
2022-11-08T22:13:45.688Z,26.98
2022-11-08T22:16:12.261Z,28.52
2022-11-08T22:21:37.886Z,31.95
2022-11-08T22:24:11.869Z,29.23
2022-11-08T22:26:39.025Z,31.33
2022-11-08T22:29:06.069Z,29.08
2022-11-08T22:31:32.950Z,28.02
2022-11-08T22:33:59.715Z,31.42
2022-11-08T22:36:26.307Z,26.17
2022-11-08T22:38:53.070Z,32.97
2022-11-08T22:41:20.420Z,27.73
2022-11-08T22:43:47.294Z,26.73
2022-11-08T22:46:14.000Z,30.27
2022-11-08T22:48:40.698Z,27.40
2022-11-08T22:51:07.591Z,31.15
2022-11-08T22:53:34.244Z,31.30
2022-11-08T22:56:01.048Z,33.75
2022-11-08T22:58:28.658Z,35.65
2022-11-08T23:01:13.982Z,41.42
2022-11-08T23:03:40.689Z,34.22
2022-11-08T23:06:07.270Z,32.47
2022-11-08T23:08:33.954Z,32.40
2022-11-08T23:11:18.872Z,31.98
2022-11-08T23:14:04.206Z,31.63
2022-11-08T23:16:40.165Z,37.42
2022-11-08T23:19:53.542Z,33.17
2022-11-08T23:22:39.030Z,35.03
2022-11-08T23:25:06.242Z,36.67
2022-11-08T23:27:51.410Z,31.85
2022-11-08T23:30:36.480Z,36.08
2022-11-08T23:33:03.843Z,30.40
2022-11-08T23:35:30.467Z,31.15
2022-11-08T23:37:57.133Z,31.48
2022-11-08T23:40:42.399Z,36.17
2022-11-08T23:43:35.909Z,32.65
2022-11-08T23:46:10.366Z,32.63
2022-11-08T23:48:37.413Z,38.83
2022-11-08T23:51:04.351Z,32.75
2022-11-08T23:53:31.104Z,30.25
2022-11-08T23:55:57.836Z,29.98
2022-11-08T23:58:24.801Z,32.47
